createdAt,value
2023-01-18T00:00:50.707Z,8.20
2023-01-18T00:03:18.910Z,8.95
2023-01-18T00:05:48.414Z,7.25
2023-01-18T00:08:18.795Z,7.95
2023-01-18T00:10:47.118Z,7.95
2023-01-18T00:13:14.993Z,8.73
2023-01-18T00:15:42.936Z,7.93
2023-01-18T00:18:10.780Z,8.32
2023-01-18T00:20:39.006Z,7.80
2023-01-18T00:23:08.363Z,7.70
2023-01-18T00:25:36.274Z,7.20
2023-01-18T00:28:04.383Z,7.03
2023-01-18T00:30:34.651Z,7.10
2023-01-18T00:33:07.063Z,5.85
2023-01-18T00:35:35.038Z,6.80
2023-01-18T00:38:02.990Z,8.05
2023-01-18T00:40:32.446Z,7.18
2023-01-18T00:43:17.908Z,6.97
2023-01-18T00:45:46.024Z,7.15
2023-01-18T00:48:15.721Z,7.15
2023-01-18T00:50:43.667Z,8.20
2023-01-18T00:53:11.544Z,7.22
2023-01-18T00:55:41.071Z,7.40
2023-01-18T00:58:09.255Z,6.63
2023-01-18T01:00:38.619Z,7.68
2023-01-18T01:03:06.518Z,5.78
2023-01-18T01:05:52.355Z,6.38
2023-01-18T01:08:21.612Z,5.50
2023-01-18T01:10:52.810Z,7.85
2023-01-18T01:13:40.097Z,6.00
2023-01-18T01:16:26.519Z,7.07
2023-01-18T01:19:12.198Z,6.32
2023-01-18T01:21:58.111Z,6.45
2023-01-18T01:24:44.067Z,7.53
2023-01-18T01:27:14.005Z,7.80
2023-01-18T01:29:42.129Z,8.45
2023-01-18T01:32:10.598Z,7.30
2023-01-18T01:34:38.587Z,6.13
2023-01-18T01:37:07.096Z,7.28
2023-01-18T01:39:35.092Z,5.53
2023-01-18T01:42:03.363Z,7.20
2023-01-18T01:44:51.940Z,6.85
2023-01-18T01:47:33.651Z,8.18
2023-01-18T01:50:08.766Z,6.63
2023-01-18T01:52:40.900Z,5.80
2023-01-18T01:55:13.578Z,6.78
2023-01-18T01:57:47.716Z,6.38
2023-01-18T02:00:19.855Z,5.38
2023-01-18T02:02:52.304Z,7.38
2023-01-18T02:05:20.492Z,5.45
2023-01-18T02:07:48.961Z,5.88
2023-01-18T02:10:17.498Z,6.07
2023-01-18T02:12:47.662Z,6.15
2023-01-18T02:15:19.909Z,4.78
2023-01-18T02:17:59.977Z,6.32
2023-01-18T02:21:15.466Z,7.50
2023-01-18T02:24:11.634Z,5.95
2023-01-18T02:27:03.800Z,6.30
2023-01-18T02:29:45.493Z,5.63
2023-01-18T02:32:25.869Z,4.78
2023-01-18T02:35:02.603Z,6.13
2023-01-18T02:37:40.115Z,6.05
2023-01-18T02:40:16.612Z,5.40
2023-01-18T02:43:04.088Z,5.63
2023-01-18T02:45:54.117Z,6.15
2023-01-18T02:48:24.299Z,5.63
2023-01-18T02:50:52.803Z,5.80
2023-01-18T02:53:20.829Z,6.50
2023-01-18T02:55:59.739Z,6.00
2023-01-18T02:58:32.657Z,6.57
2023-01-18T03:01:06.403Z,6.20
2023-01-18T03:03:36.669Z,5.60
2023-01-18T03:06:08.866Z,4.78
2023-01-18T03:08:40.998Z,7.30
2023-01-18T03:11:15.924Z,5.10
2023-01-18T03:13:57.955Z,5.80
2023-01-18T03:16:32.511Z,6.72
2023-01-18T03:19:05.044Z,6.22
2023-01-18T03:21:41.777Z,8.32
2023-01-18T03:24:10.583Z,5.13
2023-01-18T03:26:42.759Z,5.80
2023-01-18T03:29:29.631Z,6.85
2023-01-18T03:32:20.941Z,6.10
2023-01-18T03:34:53.521Z,4.90
2023-01-18T03:37:27.288Z,6.88
2023-01-18T03:39:57.736Z,5.32
2023-01-18T03:42:29.448Z,6.97
2023-01-18T03:45:04.004Z,6.78
2023-01-18T03:47:33.550Z,6.65
2023-01-18T03:50:02.160Z,6.93
2023-01-18T03:52:37.738Z,6.28
2023-01-18T03:55:10.659Z,6.30
2023-01-18T03:57:43.751Z,5.13
2023-01-18T04:00:14.075Z,8.10
2023-01-18T04:02:44.897Z,6.47
2023-01-18T04:05:13.040Z,6.10
2023-01-18T04:07:41.092Z,6.22
2023-01-18T04:10:10.292Z,6.53
2023-01-18T04:12:38.886Z,7.45
2023-01-18T04:15:07.796Z,6.75
2023-01-18T04:17:35.692Z,5.30
2023-01-18T04:20:06.127Z,7.10
2023-01-18T04:22:34.090Z,8.05
2023-01-18T04:25:01.999Z,6.97
2023-01-18T04:27:30.793Z,6.38
2023-01-18T04:29:59.364Z,5.07
2023-01-18T04:32:28.883Z,6.75
2023-01-18T04:34:57.124Z,5.40
2023-01-18T04:37:31.191Z,5.57
2023-01-18T04:39:59.241Z,6.10
2023-01-18T04:42:27.493Z,4.63
2023-01-18T04:44:55.655Z,7.00
2023-01-18T04:47:23.777Z,8.60
2023-01-18T04:49:51.755Z,5.80
2023-01-18T04:52:19.723Z,5.85
2023-01-18T04:54:49.239Z,6.95
2023-01-18T04:57:17.197Z,7.55
2023-01-18T04:59:47.095Z,6.03
2023-01-18T05:02:16.298Z,7.45
2023-01-18T05:04:45.042Z,5.10
2023-01-18T05:07:13.212Z,6.38
2023-01-18T05:09:41.125Z,7.15
2023-01-18T05:12:10.429Z,7.03
2023-01-18T05:14:53.958Z,8.40
2023-01-18T05:17:21.981Z,5.55
2023-01-18T05:19:50.077Z,5.75
2023-01-18T05:22:18.329Z,7.07
2023-01-18T05:24:46.325Z,6.53
2023-01-18T05:27:16.931Z,7.47
2023-01-18T05:29:45.402Z,6.22
2023-01-18T05:32:13.514Z,5.25
2023-01-18T05:34:41.992Z,5.93
2023-01-18T05:37:10.287Z,6.10
2023-01-18T05:39:38.211Z,6.60
2023-01-18T05:42:06.834Z,8.38
2023-01-18T05:44:36.427Z,5.88
2023-01-18T05:47:04.553Z,8.30
2023-01-18T05:49:32.515Z,6.15
2023-01-18T05:52:03.071Z,7.60
2023-01-18T05:54:31.207Z,6.68
2023-01-18T05:56:59.128Z,7.22
2023-01-18T05:59:27.227Z,7.55
2023-01-18T06:01:56.819Z,6.50
2023-01-18T06:04:25.373Z,6.63
2023-01-18T06:06:53.619Z,9.63
2023-01-18T06:09:22.274Z,9.57
2023-01-18T06:11:52.284Z,9.05
2023-01-18T06:14:20.207Z,8.00
2023-01-18T06:16:48.448Z,8.18
2023-01-18T06:19:18.029Z,8.48
2023-01-18T06:21:45.890Z,8.13
2023-01-18T06:24:14.545Z,7.88
2023-01-18T06:26:42.440Z,8.40
2023-01-18T06:29:10.399Z,9.15
2023-01-18T06:31:38.369Z,8.95
2023-01-18T06:34:09.400Z,8.60
2023-01-18T06:36:40.065Z,8.02
2023-01-18T06:39:08.064Z,9.13
2023-01-18T06:41:35.947Z,8.82
2023-01-18T06:44:04.010Z,7.65
2023-01-18T06:46:32.130Z,8.40
2023-01-18T06:49:00.006Z,7.43
2023-01-18T06:51:27.932Z,9.27
2023-01-18T06:53:57.257Z,7.65
2023-01-18T06:56:26.742Z,7.68
2023-01-18T06:58:55.812Z,8.50
2023-01-18T07:01:24.016Z,9.23
2023-01-18T07:03:51.965Z,9.88
2023-01-18T07:06:20.265Z,10.50
2023-01-18T07:08:50.062Z,9.65
2023-01-18T07:11:19.966Z,8.20
2023-01-18T07:13:49.428Z,8.80
2023-01-18T07:16:18.479Z,8.00
2023-01-18T07:18:47.999Z,8.55
2023-01-18T07:21:17.876Z,9.13
2023-01-18T07:23:45.954Z,6.80
2023-01-18T07:26:16.390Z,9.70
2023-01-18T07:28:46.852Z,8.05
2023-01-18T07:31:15.112Z,8.75
2023-01-18T07:33:43.555Z,9.15
2023-01-18T07:36:12.095Z,8.93
2023-01-18T07:38:40.420Z,8.13
2023-01-18T07:41:10.285Z,8.95
2023-01-18T07:43:38.877Z,8.48
2023-01-18T07:46:11.913Z,10.35
2023-01-18T07:48:42.349Z,9.00
2023-01-18T07:51:12.159Z,10.17
2023-01-18T07:53:40.601Z,8.77
2023-01-18T07:56:10.316Z,8.95
2023-01-18T07:58:39.209Z,9.73
2023-01-18T08:01:10.882Z,11.73
2023-01-18T08:03:39.439Z,10.60
2023-01-18T08:06:08.562Z,10.88
2023-01-18T08:08:37.336Z,9.20
2023-01-18T08:11:06.699Z,9.73
2023-01-18T08:13:34.851Z,9.48
2023-01-18T08:16:04.456Z,9.50
2023-01-18T08:18:33.922Z,11.17
2023-01-18T08:21:01.807Z,9.73
2023-01-18T08:23:29.747Z,11.15
2023-01-18T08:26:01.977Z,9.82
2023-01-18T08:28:30.128Z,11.20
2023-01-18T08:31:08.588Z,10.15
2023-01-18T08:33:46.043Z,9.43
2023-01-18T08:36:15.606Z,9.10
2023-01-18T08:38:44.355Z,8.68
2023-01-18T08:41:12.752Z,10.30
2023-01-18T08:43:40.688Z,9.77
2023-01-18T08:46:08.673Z,10.30
2023-01-18T08:48:36.755Z,10.18
2023-01-18T08:51:06.608Z,10.18
2023-01-18T08:53:34.591Z,8.70
2023-01-18T08:56:08.279Z,8.00
2023-01-18T08:58:36.227Z,9.30
2023-01-18T09:01:06.491Z,8.10
2023-01-18T09:03:35.251Z,8.57
2023-01-18T09:06:05.403Z,8.13
2023-01-18T09:08:33.370Z,8.73
2023-01-18T09:11:03.264Z,7.43
2023-01-18T09:13:31.390Z,10.43
2023-01-18T09:16:00.366Z,10.73
2023-01-18T09:18:28.428Z,8.37
2023-01-18T09:20:56.727Z,9.52
2023-01-18T09:23:26.983Z,8.30
2023-01-18T09:26:02.954Z,8.38
2023-01-18T09:28:30.874Z,9.70
2023-01-18T09:31:01.402Z,8.52
2023-01-18T09:33:37.659Z,9.23
2023-01-18T09:36:09.960Z,8.80
2023-01-18T09:38:40.734Z,10.00
2023-01-18T09:41:23.057Z,8.93
2023-01-18T09:43:52.926Z,10.57
2023-01-18T09:46:22.813Z,8.38
2023-01-18T09:48:55.581Z,10.65
2023-01-18T09:51:28.856Z,7.45
2023-01-18T09:54:10.370Z,8.63
2023-01-18T09:56:45.785Z,8.20
2023-01-18T09:59:22.346Z,7.75
2023-01-18T10:01:55.015Z,9.55
2023-01-18T10:04:30.105Z,8.15
2023-01-18T10:07:01.595Z,7.45
2023-01-18T10:09:34.630Z,8.77
2023-01-18T10:12:05.327Z,7.65
2023-01-18T10:14:45.797Z,10.07
2023-01-18T10:17:17.929Z,9.35
2023-01-18T10:19:46.079Z,7.78
2023-01-18T10:22:21.789Z,8.90
2023-01-18T10:25:04.831Z,7.03
2023-01-18T10:28:00.407Z,7.10
2023-01-18T10:30:50.748Z,6.55
2023-01-18T10:33:22.362Z,7.22
2023-01-18T10:35:54.141Z,8.00
2023-01-18T10:38:24.893Z,7.25
2023-01-18T10:40:58.092Z,7.88
2023-01-18T10:43:28.833Z,7.15
2023-01-18T10:45:57.466Z,7.20
2023-01-18T10:48:30.011Z,8.05
2023-01-18T10:50:59.956Z,6.70
2023-01-18T10:53:31.818Z,6.10
2023-01-18T10:56:05.311Z,6.95
2023-01-18T10:58:37.869Z,8.63
2023-01-18T11:01:06.704Z,7.97
2023-01-18T11:03:45.876Z,6.10
2023-01-18T11:06:17.024Z,7.23
2023-01-18T11:08:45.262Z,5.97
2023-01-18T11:11:20.093Z,6.80
2023-01-18T11:13:49.422Z,6.43
2023-01-18T11:16:19.336Z,6.20
2023-01-18T11:18:58.497Z,6.05
2023-01-18T11:21:32.819Z,7.95
2023-01-18T11:24:07.680Z,8.30
2023-01-18T11:26:50.977Z,7.13
2023-01-18T11:29:19.180Z,6.10
2023-01-18T11:31:49.293Z,6.40
2023-01-18T11:34:26.063Z,6.05
2023-01-18T11:36:54.283Z,7.25
2023-01-18T11:39:31.774Z,7.15
2023-01-18T11:42:21.988Z,6.18
2023-01-18T11:45:00.172Z,5.40
2023-01-18T11:47:33.288Z,6.38
2023-01-18T11:50:20.829Z,7.18
2023-01-18T11:52:54.604Z,7.63
2023-01-18T11:55:31.223Z,6.25
2023-01-18T11:58:01.853Z,7.40
2023-01-18T12:00:39.418Z,7.82
2023-01-18T12:03:30.128Z,6.85
2023-01-18T12:06:07.013Z,6.63
2023-01-18T12:09:04.722Z,5.97
2023-01-18T12:11:46.973Z,6.32
2023-01-18T12:14:34.995Z,7.03
2023-01-18T12:17:25.105Z,6.80
2023-01-18T12:20:16.238Z,5.40
2023-01-18T12:23:20.899Z,8.48
2023-01-18T12:26:12.125Z,5.93
2023-01-18T12:28:59.105Z,9.48
2023-01-18T12:31:43.368Z,7.10
2023-01-18T12:34:14.856Z,8.07
2023-01-18T12:37:01.676Z,6.88
2023-01-18T12:39:53.365Z,5.90
2023-01-18T12:42:34.596Z,7.28
2023-01-18T12:45:14.585Z,11.75
2023-01-18T12:47:51.081Z,8.15
2023-01-18T12:50:24.670Z,9.68
2023-01-18T12:52:55.786Z,7.43
2023-01-18T12:55:26.426Z,7.60
2023-01-18T12:57:58.729Z,8.77
2023-01-18T13:00:32.938Z,8.40
2023-01-18T13:03:10.543Z,9.55
2023-01-18T13:05:51.092Z,9.80
2023-01-18T13:08:28.552Z,10.50
2023-01-18T13:11:02.531Z,10.07
2023-01-18T13:13:31.530Z,8.15
2023-01-18T13:16:10.754Z,9.57
2023-01-18T13:18:48.354Z,9.15
2023-01-18T13:21:25.202Z,11.30
2023-01-18T13:24:00.780Z,11.65
2023-01-18T13:26:30.982Z,8.75
2023-01-18T13:29:16.632Z,9.88
2023-01-18T13:31:45.370Z,8.10
2023-01-18T13:34:31.464Z,9.65
2023-01-18T13:37:14.036Z,10.55
2023-01-18T13:39:48.313Z,8.90
2023-01-18T13:42:33.858Z,8.43
2023-01-18T13:45:19.105Z,12.25
2023-01-18T13:47:56.012Z,9.60
2023-01-18T13:50:48.213Z,10.05
2023-01-18T13:53:31.554Z,10.15
2023-01-18T13:56:28.517Z,10.52
2023-01-18T13:58:59.879Z,10.45
2023-01-18T14:01:32.783Z,11.75
2023-01-18T14:04:22.011Z,11.18
2023-01-18T14:06:52.531Z,11.27
2023-01-18T14:09:32.882Z,8.40
2023-01-18T14:12:01.204Z,8.95
2023-01-18T14:14:31.402Z,12.27
2023-01-18T14:17:02.505Z,9.27
2023-01-18T14:19:35.607Z,10.60
2023-01-18T14:22:26.466Z,10.32
2023-01-18T14:25:27.227Z,9.23
2023-01-18T14:28:04.132Z,9.68
2023-01-18T14:30:35.277Z,9.85
2023-01-18T14:33:08.835Z,7.82
2023-01-18T14:35:36.829Z,9.13
2023-01-18T14:38:19.042Z,10.02
2023-01-18T14:40:49.236Z,8.73
2023-01-18T14:43:22.338Z,6.80
2023-01-18T14:45:56.394Z,8.73
2023-01-18T14:48:26.225Z,9.45
2023-01-18T14:50:56.202Z,7.40
2023-01-18T14:53:27.974Z,7.60
2023-01-18T14:56:05.796Z,8.55
2023-01-18T14:58:36.853Z,9.40
2023-01-18T15:01:06.308Z,7.00
2023-01-18T15:03:34.229Z,6.75
2023-01-18T15:06:09.511Z,6.57
2023-01-18T15:08:40.492Z,7.65
2023-01-18T15:11:09.258Z,6.15
2023-01-18T15:13:49.033Z,7.22
2023-01-18T15:16:20.009Z,5.82
2023-01-18T15:18:49.666Z,8.13
2023-01-18T15:21:22.232Z,6.68
2023-01-18T15:23:52.561Z,6.93
2023-01-18T15:26:35.125Z,7.43
2023-01-18T15:29:09.599Z,9.38
2023-01-18T15:31:47.358Z,7.78
2023-01-18T15:34:16.824Z,10.43
2023-01-18T15:36:46.124Z,8.73
2023-01-18T15:39:15.404Z,10.38
2023-01-18T15:41:44.427Z,9.75
2023-01-18T15:44:39.412Z,9.45
2023-01-18T15:47:16.924Z,9.40
2023-01-18T15:49:47.220Z,10.25
2023-01-18T15:52:15.654Z,8.45
2023-01-18T15:54:45.351Z,8.73
2023-01-18T15:57:18.972Z,8.85
2023-01-18T15:59:48.951Z,8.32
2023-01-18T16:02:20.216Z,8.98
2023-01-18T16:04:50.869Z,8.07
2023-01-18T16:07:39.110Z,7.65
2023-01-18T16:10:30.954Z,9.13
2023-01-18T16:13:23.459Z,7.60
2023-01-18T16:16:09.387Z,7.35
2023-01-18T16:18:37.383Z,7.50
2023-01-18T16:21:13.310Z,7.80
2023-01-18T16:23:45.434Z,8.35
2023-01-18T16:26:15.820Z,8.23
2023-01-18T16:28:43.950Z,10.98
2023-01-18T16:31:12.199Z,8.38
2023-01-18T16:33:40.607Z,9.43
2023-01-18T16:36:18.194Z,8.10
2023-01-18T16:38:46.400Z,8.25
2023-01-18T16:41:16.999Z,9.40
2023-01-18T16:43:45.133Z,7.28
2023-01-18T16:46:13.142Z,7.93
2023-01-18T16:48:41.164Z,7.35
2023-01-18T16:51:17.059Z,8.98
2023-01-18T16:53:45.234Z,8.63
2023-01-18T16:56:16.593Z,8.45
2023-01-18T16:58:44.873Z,7.70
2023-01-18T17:01:15.817Z,7.75
2023-01-18T17:03:44.680Z,7.03
2023-01-18T17:06:17.702Z,6.70
2023-01-18T17:08:46.293Z,7.57
2023-01-18T17:11:17.529Z,7.78
2023-01-18T17:13:47.936Z,7.82
2023-01-18T17:16:18.522Z,8.07
2023-01-18T17:18:47.998Z,8.55
2023-01-18T17:21:15.901Z,8.60
2023-01-18T17:23:44.955Z,8.73
2023-01-18T17:26:16.850Z,12.25
2023-01-18T17:28:45.463Z,7.68
2023-01-18T17:31:13.425Z,9.45
2023-01-18T17:33:42.979Z,7.15
2023-01-18T17:36:11.159Z,9.68
2023-01-18T17:38:39.281Z,10.38
2023-01-18T17:41:11.323Z,10.70
2023-01-18T17:43:42.991Z,13.20
2023-01-18T17:46:12.008Z,12.02
2023-01-18T17:48:40.222Z,10.00
2023-01-18T17:51:08.617Z,11.02
2023-01-18T17:53:37.835Z,9.00
2023-01-18T17:56:08.312Z,11.88
2023-01-18T17:58:36.783Z,8.93
2023-01-18T18:01:13.135Z,9.77
2023-01-18T18:03:43.066Z,9.25
2023-01-18T18:06:12.697Z,9.07
2023-01-18T18:08:40.732Z,8.68
2023-01-18T18:11:09.655Z,8.98
2023-01-18T18:13:39.086Z,10.43
2023-01-18T18:16:09.971Z,10.02
2023-01-18T18:18:41.109Z,9.80
2023-01-18T18:21:09.452Z,8.38
2023-01-18T18:23:38.465Z,8.88
2023-01-18T18:26:06.707Z,8.95
2023-01-18T18:28:35.022Z,11.20
2023-01-18T18:31:03.290Z,8.60
2023-01-18T18:33:33.859Z,10.18
2023-01-18T18:36:03.859Z,9.25
2023-01-18T18:38:31.887Z,9.40
2023-01-18T18:41:05.322Z,9.10
2023-01-18T18:43:33.837Z,10.45
2023-01-18T18:46:02.258Z,9.25
2023-01-18T18:48:30.444Z,7.97
2023-01-18T18:50:58.436Z,10.75
2023-01-18T18:53:37.429Z,10.98
2023-01-18T18:56:07.091Z,9.20
2023-01-18T18:58:36.583Z,9.57
2023-01-18T19:01:04.925Z,8.63
2023-01-18T19:03:33.622Z,9.55
2023-01-18T19:06:01.814Z,7.90
2023-01-18T19:08:31.528Z,7.88
2023-01-18T19:10:59.614Z,7.85
2023-01-18T19:13:27.579Z,7.63
2023-01-18T19:15:55.570Z,8.45
2023-01-18T19:18:24.429Z,8.57
2023-01-18T19:20:52.747Z,6.65
2023-01-18T19:23:20.842Z,6.47
2023-01-18T19:25:50.287Z,9.05
2023-01-18T19:28:18.812Z,8.45
2023-01-18T19:30:46.679Z,6.32
2023-01-18T19:33:15.713Z,7.60
2023-01-18T19:35:46.947Z,7.30
2023-01-18T19:38:15.631Z,7.93
2023-01-18T19:40:43.668Z,7.88
2023-01-18T19:43:13.583Z,6.68
2023-01-18T19:45:41.509Z,7.90
2023-01-18T19:48:09.457Z,7.40
2023-01-18T19:50:37.777Z,6.75
2023-01-18T19:53:06.057Z,7.30
2023-01-18T19:55:36.375Z,8.82
2023-01-18T19:58:04.298Z,7.75
2023-01-18T20:00:33.889Z,7.00
2023-01-18T20:03:02.645Z,8.25
2023-01-18T20:05:30.998Z,6.72
2023-01-18T20:07:58.830Z,6.13
2023-01-18T20:10:26.875Z,7.00
2023-01-18T20:12:54.790Z,7.95
2023-01-18T20:15:23.184Z,7.75
2023-01-18T20:17:52.649Z,8.10
2023-01-18T20:20:31.716Z,7.22
2023-01-18T20:23:01.194Z,7.45
2023-01-18T20:25:29.621Z,6.05
2023-01-18T20:27:58.294Z,7.18
2023-01-18T20:30:26.505Z,7.55
2023-01-18T20:32:55.913Z,5.93
2023-01-18T20:35:23.855Z,7.00
2023-01-18T20:37:52.153Z,7.55
2023-01-18T20:40:20.169Z,7.65
2023-01-18T20:42:48.087Z,6.78
2023-01-18T20:45:16.047Z,6.70
2023-01-18T20:47:44.797Z,7.43
2023-01-18T20:50:14.255Z,6.72
2023-01-18T20:52:42.158Z,6.05
2023-01-18T20:55:13.076Z,8.00
2023-01-18T20:57:41.194Z,6.63
2023-01-18T21:00:12.474Z,7.07
2023-01-18T21:02:41.422Z,5.75
2023-01-18T21:05:09.968Z,5.00
2023-01-18T21:07:41.605Z,7.43
2023-01-18T21:10:10.788Z,6.85
2023-01-18T21:12:38.679Z,6.05
2023-01-18T21:15:09.072Z,6.97
2023-01-18T21:17:37.208Z,7.22
2023-01-18T21:20:05.742Z,6.28
2023-01-18T21:22:33.618Z,6.25
2023-01-18T21:25:02.759Z,5.25
2023-01-18T21:27:33.124Z,5.70
2023-01-18T21:30:00.995Z,6.45
2023-01-18T21:32:29.018Z,7.45
2023-01-18T21:34:56.863Z,6.28
2023-01-18T21:37:24.844Z,6.35
2023-01-18T21:39:52.710Z,6.93
2023-01-18T21:42:39.294Z,5.88
2023-01-18T21:45:27.103Z,5.82
2023-01-18T21:47:56.786Z,5.72
2023-01-18T21:50:42.295Z,5.97
2023-01-18T21:53:32.266Z,5.53
2023-01-18T21:56:00.521Z,7.57
2023-01-18T21:58:47.618Z,5.55
2023-01-18T22:01:17.654Z,5.53
2023-01-18T22:04:03.549Z,5.18
2023-01-18T22:06:31.530Z,4.90
2023-01-18T22:08:59.495Z,5.63
2023-01-18T22:11:27.839Z,5.32
2023-01-18T22:13:57.020Z,5.25
2023-01-18T22:16:30.297Z,5.68
2023-01-18T22:18:59.192Z,5.65
2023-01-18T22:21:27.659Z,5.43
2023-01-18T22:23:56.239Z,6.60
2023-01-18T22:26:26.977Z,6.72
2023-01-18T22:28:56.786Z,4.95
2023-01-18T22:31:24.981Z,4.82
2023-01-18T22:33:53.259Z,5.47
2023-01-18T22:36:21.094Z,5.85
2023-01-18T22:38:49.026Z,6.07
2023-01-18T22:41:18.645Z,5.78
2023-01-18T22:43:47.305Z,5.47
2023-01-18T22:46:18.747Z,5.30
2023-01-18T22:48:47.882Z,6.10
2023-01-18T22:51:17.677Z,5.45
2023-01-18T22:53:46.474Z,5.55
2023-01-18T22:56:15.948Z,5.68
2023-01-18T22:58:44.154Z,6.28
2023-01-18T23:01:18.083Z,6.65
2023-01-18T23:03:46.568Z,5.88
2023-01-18T23:06:15.268Z,4.30
2023-01-18T23:08:46.069Z,5.32
2023-01-18T23:11:16.417Z,4.35
2023-01-18T23:14:06.932Z,4.45
2023-01-18T23:16:53.776Z,6.00
2023-01-18T23:19:22.077Z,4.30
2023-01-18T23:21:50.072Z,6.70
2023-01-18T23:24:18.029Z,5.00
2023-01-18T23:26:45.956Z,6.07
2023-01-18T23:29:14.111Z,6.78
2023-01-18T23:31:43.480Z,5.53
2023-01-18T23:34:11.524Z,5.57
2023-01-18T23:36:39.505Z,6.63
2023-01-18T23:39:25.012Z,5.90
2023-01-18T23:42:10.514Z,5.63
2023-01-18T23:44:56.013Z,5.25
2023-01-18T23:47:42.958Z,7.25
2023-01-18T23:50:29.224Z,4.93
2023-01-18T23:53:14.769Z,5.35
2023-01-18T23:55:42.904Z,4.68
2023-01-18T23:58:10.831Z,5.18
